sensor_id;sensor_type;location;lat;lon;timestamp;pressure;altitude;pressure_sealevel;temperature;humidity
54270;BME280;40181;51.560;13.000;2023-04-26T00:00:43;100618.50;;;5.42;75.55
54270;BME280;40181;51.560;13.000;2023-04-26T00:03:12;100628.97;;;5.19;75.99
54270;BME280;40181;51.560;13.000;2023-04-26T00:05:41;100618.19;;;5.34;75.58
54270;BME280;40181;51.560;13.000;2023-04-26T00:08:10;100619.25;;;5.39;75.57
54270;BME280;40181;51.560;13.000;2023-04-26T00:10:39;100619.03;;;5.33;76.14
54270;BME280;40181;51.560;13.000;2023-04-26T00:13:11;100615.66;;;5.35;76.07
54270;BME280;40181;51.560;13.000;2023-04-26T00:15:40;100624.56;;;5.42;75.76
54270;BME280;40181;51.560;13.000;2023-04-26T00:18:10;100621.66;;;5.33;76.46
54270;BME280;40181;51.560;13.000;2023-04-26T00:20:39;100619.72;;;5.27;76.55
54270;BME280;40181;51.560;13.000;2023-04-26T00:23:08;100632.13;;;5.10;77.31
54270;BME280;40181;51.560;13.000;2023-04-26T00:25:37;100631.56;;;5.19;77.24
54270;BME280;40181;51.560;13.000;2023-04-26T00:28:06;100628.97;;;5.19;77.33
54270;BME280;40181;51.560;13.000;2023-04-26T00:30:38;100631.66;;;5.22;77.67
54270;BME280;40181;51.560;13.000;2023-04-26T00:33:12;100627.69;;;5.07;78.35
54270;BME280;40181;51.560;13.000;2023-04-26T00:35:41;100629.84;;;5.19;77.44
54270;BME280;40181;51.560;13.000;2023-04-26T00:38:10;100630.66;;;4.94;78.86
54270;BME280;40181;51.560;13.000;2023-04-26T00:40:39;100616.53;;;5.11;78.24
54270;BME280;40181;51.560;13.000;2023-04-26T00:43:08;100627.94;;;4.91;78.79
54270;BME280;40181;51.560;13.000;2023-04-26T00:45:40;100625.75;;;5.02;78.72
54270;BME280;40181;51.560;13.000;2023-04-26T00:48:09;100638.47;;;4.94;79.10
54270;BME280;40181;51.560;13.000;2023-04-26T00:50:38;100635.16;;;4.75;79.33
54270;BME280;40181;51.560;13.000;2023-04-26T00:53:08;100632.66;;;5.01;78.69
54270;BME280;40181;51.560;13.000;2023-04-26T00:55:39;100638.81;;;5.03;79.06
54270;BME280;40181;51.560;13.000;2023-04-26T00:58:08;100639.63;;;5.25;78.08
54270;BME280;40181;51.560;13.000;2023-04-26T01:00:40;100636.84;;;5.20;78.04
54270;BME280;40181;51.560;13.000;2023-04-26T01:03:09;100641.66;;;5.09;78.75
54270;BME280;40181;51.560;13.000;2023-04-26T01:05:38;100644.00;;;5.03;78.77
54270;BME280;40181;51.560;13.000;2023-04-26T01:08:07;100636.56;;;4.67;80.13
54270;BME280;40181;51.560;13.000;2023-04-26T01:10:38;100651.19;;;4.86;80.23
54270;BME280;40181;51.560;13.000;2023-04-26T01:13:07;100649.22;;;5.03;79.37
54270;BME280;40181;51.560;13.000;2023-04-26T01:15:40;100644.91;;;5.04;79.13
54270;BME280;40181;51.560;13.000;2023-04-26T01:18:10;100642.31;;;4.81;79.61
54270;BME280;40181;51.560;13.000;2023-04-26T01:20:41;100646.50;;;5.00;79.28
54270;BME280;40181;51.560;13.000;2023-04-26T01:23:13;100649.84;;;4.73;80.04
54270;BME280;40181;51.560;13.000;2023-04-26T01:25:42;100646.88;;;4.64;80.83
54270;BME280;40181;51.560;13.000;2023-04-26T01:28:11;100650.78;;;4.75;80.31
54270;BME280;40181;51.560;13.000;2023-04-26T01:30:40;100665.16;;;4.65;80.47
54270;BME280;40181;51.560;13.000;2023-04-26T01:33:10;100661.69;;;4.43;81.83
54270;BME280;40181;51.560;13.000;2023-04-26T01:35:40;100651.75;;;4.77;80.26
54270;BME280;40181;51.560;13.000;2023-04-26T01:38:09;100663.38;;;4.87;79.62
54270;BME280;40181;51.560;13.000;2023-04-26T01:40:42;100664.34;;;4.66;80.68
54270;BME280;40181;51.560;13.000;2023-04-26T01:43:11;100665.53;;;4.75;80.50
54270;BME280;40181;51.560;13.000;2023-04-26T01:45:45;100662.84;;;4.73;80.17
54270;BME280;40181;51.560;13.000;2023-04-26T01:48:14;100657.34;;;4.88;79.83
54270;BME280;40181;51.560;13.000;2023-04-26T01:50:43;100674.78;;;4.68;80.82
54270;BME280;40181;51.560;13.000;2023-04-26T01:53:15;100665.06;;;4.41;81.09
54270;BME280;40181;51.560;13.000;2023-04-26T01:55:45;100671.53;;;4.29;82.19
54270;BME280;40181;51.560;13.000;2023-04-26T01:58:14;100667.72;;;4.21;81.73
54270;BME280;40181;51.560;13.000;2023-04-26T02:00:43;100660.66;;;4.17;82.59
54270;BME280;40181;51.560;13.000;2023-04-26T02:03:12;100667.31;;;4.10;83.18
54270;BME280;40181;51.560;13.000;2023-04-26T02:05:41;100667.91;;;4.26;82.29
54270;BME280;40181;51.560;13.000;2023-04-26T02:08:11;100669.47;;;3.99;84.10
54270;BME280;40181;51.560;13.000;2023-04-26T02:10:42;100667.06;;;4.04;83.66
54270;BME280;40181;51.560;13.000;2023-04-26T02:13:11;100671.22;;;4.00;83.29
54270;BME280;40181;51.560;13.000;2023-04-26T02:15:45;100671.34;;;4.04;83.10
54270;BME280;40181;51.560;13.000;2023-04-26T02:18:15;100670.78;;;4.32;82.68
54270;BME280;40181;51.560;13.000;2023-04-26T02:20:46;100675.72;;;4.05;83.61
54270;BME280;40181;51.560;13.000;2023-04-26T02:23:16;100668.31;;;3.93;83.97
54270;BME280;40181;51.560;13.000;2023-04-26T02:25:47;100664.72;;;4.10;83.46
54270;BME280;40181;51.560;13.000;2023-04-26T02:28:17;100677.75;;;4.33;82.13
54270;BME280;40181;51.560;13.000;2023-04-26T02:30:46;100675.72;;;4.05;83.07
54270;BME280;40181;51.560;13.000;2023-04-26T02:33:15;100659.19;;;4.03;83.19
54270;BME280;40181;51.560;13.000;2023-04-26T02:35:44;100664.69;;;3.89;84.41
54270;BME280;40181;51.560;13.000;2023-04-26T02:38:13;100668.19;;;4.11;82.72
54270;BME280;40181;51.560;13.000;2023-04-26T02:40:42;100663.03;;;3.91;84.02
54270;BME280;40181;51.560;13.000;2023-04-26T02:43:14;100665.94;;;3.78;84.22
54270;BME280;40181;51.560;13.000;2023-04-26T02:45:43;100669.69;;;3.84;84.08
54270;BME280;40181;51.560;13.000;2023-04-26T02:48:12;100673.09;;;3.62;84.23
54270;BME280;40181;51.560;13.000;2023-04-26T02:50:41;100662.16;;;4.12;82.98
54270;BME280;40181;51.560;13.000;2023-04-26T02:53:10;100669.81;;;3.87;83.43
54270;BME280;40181;51.560;13.000;2023-04-26T02:55:40;100664.19;;;3.98;83.37
54270;BME280;40181;51.560;13.000;2023-04-26T02:58:09;100671.94;;;3.77;84.17
54270;BME280;40181;51.560;13.000;2023-04-26T03:00:44;100681.84;;;3.44;86.22
54270;BME280;40181;51.560;13.000;2023-04-26T03:03:14;100674.34;;;3.72;84.95
54270;BME280;40181;51.560;13.000;2023-04-26T03:05:43;100683.13;;;3.35;86.44
54270;BME280;40181;51.560;13.000;2023-04-26T03:08:12;100667.88;;;3.62;85.34
54270;BME280;40181;51.560;13.000;2023-04-26T03:10:43;100670.13;;;3.74;84.32
54270;BME280;40181;51.560;13.000;2023-04-26T03:13:12;100682.06;;;2.92;87.80
54270;BME280;40181;51.560;13.000;2023-04-26T03:15:45;100674.03;;;3.64;84.76
54270;BME280;40181;51.560;13.000;2023-04-26T03:18:16;100675.25;;;3.13;86.19
54270;BME280;40181;51.560;13.000;2023-04-26T03:20:45;100678.31;;;2.85;88.20
54270;BME280;40181;51.560;13.000;2023-04-26T03:23:15;100679.56;;;3.13;88.04
54270;BME280;40181;51.560;13.000;2023-04-26T03:25:44;100674.06;;;3.44;85.75
54270;BME280;40181;51.560;13.000;2023-04-26T03:28:13;100669.19;;;3.52;85.80
54270;BME280;40181;51.560;13.000;2023-04-26T03:30:45;100676.84;;;3.69;84.96
54270;BME280;40181;51.560;13.000;2023-04-26T03:33:14;100677.31;;;3.40;85.32
54270;BME280;40181;51.560;13.000;2023-04-26T03:35:43;100672.81;;;3.56;84.94
54270;BME280;40181;51.560;13.000;2023-04-26T03:38:12;100680.13;;;3.45;85.35
54270;BME280;40181;51.560;13.000;2023-04-26T03:40:41;100680.53;;;3.74;84.06
54270;BME280;40181;51.560;13.000;2023-04-26T03:43:11;100675.41;;;3.56;84.24
54270;BME280;40181;51.560;13.000;2023-04-26T03:45:40;100688.41;;;3.56;84.49
54270;BME280;40181;51.560;13.000;2023-04-26T03:48:11;100678.41;;;3.45;84.38
54270;BME280;40181;51.560;13.000;2023-04-26T03:50:40;100680.25;;;3.68;83.66
54270;BME280;40181;51.560;13.000;2023-04-26T03:53:11;100689.00;;;3.70;83.83
54270;BME280;40181;51.560;13.000;2023-04-26T03:55:40;100691.19;;;3.60;83.57
54270;BME280;40181;51.560;13.000;2023-04-26T03:58:10;100688.69;;;3.62;83.73
54270;BME280;40181;51.560;13.000;2023-04-26T04:00:39;100691.75;;;3.34;85.40
54270;BME280;40181;51.560;13.000;2023-04-26T04:03:11;100691.41;;;3.45;84.91
54270;BME280;40181;51.560;13.000;2023-04-26T04:05:41;100680.91;;;3.42;84.20
54270;BME280;40181;51.560;13.000;2023-04-26T04:08:10;100688.41;;;3.36;85.01
54270;BME280;40181;51.560;13.000;2023-04-26T04:10:39;100695.00;;;3.10;85.85
54270;BME280;40181;51.560;13.000;2023-04-26T04:13:09;100693.09;;;3.25;86.26
54270;BME280;40181;51.560;13.000;2023-04-26T04:15:38;100694.97;;;3.28;85.74
54270;BME280;40181;51.560;13.000;2023-04-26T04:18:07;100690.91;;;3.15;85.59
54270;BME280;40181;51.560;13.000;2023-04-26T04:20:39;100702.88;;;3.31;85.75
54270;BME280;40181;51.560;13.000;2023-04-26T04:23:08;100689.59;;;3.05;86.46
54270;BME280;40181;51.560;13.000;2023-04-26T04:25:37;100689.88;;;3.11;87.04
54270;BME280;40181;51.560;13.000;2023-04-26T04:28:08;100698.38;;;3.27;86.60
54270;BME280;40181;51.560;13.000;2023-04-26T04:30:37;100698.50;;;3.30;85.93
54270;BME280;40181;51.560;13.000;2023-04-26T04:33:07;100700.25;;;3.11;86.54
54270;BME280;40181;51.560;13.000;2023-04-26T04:35:40;100719.28;;;3.30;85.96
54270;BME280;40181;51.560;13.000;2023-04-26T04:38:09;100714.44;;;3.38;85.44
54270;BME280;40181;51.560;13.000;2023-04-26T04:40:38;100724.63;;;2.95;87.03
54270;BME280;40181;51.560;13.000;2023-04-26T04:43:07;100720.59;;;3.02;87.23
54270;BME280;40181;51.560;13.000;2023-04-26T04:45:37;100728.69;;;3.08;86.49
54270;BME280;40181;51.560;13.000;2023-04-26T04:48:06;100718.22;;;3.07;87.08
54270;BME280;40181;51.560;13.000;2023-04-26T04:50:38;100719.06;;;3.25;86.53
54270;BME280;40181;51.560;13.000;2023-04-26T04:53:07;100720.22;;;3.12;87.52
54270;BME280;40181;51.560;13.000;2023-04-26T04:55:37;100726.19;;;3.29;86.23
54270;BME280;40181;51.560;13.000;2023-04-26T04:58:06;100726.13;;;3.10;87.31
54270;BME280;40181;51.560;13.000;2023-04-26T05:00:35;100739.94;;;3.09;87.37
54270;BME280;40181;51.560;13.000;2023-04-26T05:03:04;100732.91;;;3.06;87.63
54270;BME280;40181;51.560;13.000;2023-04-26T05:05:34;100744.41;;;3.11;87.44
54270;BME280;40181;51.560;13.000;2023-04-26T05:08:06;100743.25;;;3.24;86.70
54270;BME280;40181;51.560;13.000;2023-04-26T05:10:35;100738.97;;;3.25;87.12
54270;BME280;40181;51.560;13.000;2023-04-26T05:13:05;100733.16;;;3.30;86.46
54270;BME280;40181;51.560;13.000;2023-04-26T05:15:34;100731.94;;;3.42;86.32
54270;BME280;40181;51.560;13.000;2023-04-26T05:18:03;100743.88;;;3.18;87.12
54270;BME280;40181;51.560;13.000;2023-04-26T05:20:32;100736.41;;;3.26;86.88
54270;BME280;40181;51.560;13.000;2023-04-26T05:23:04;100742.00;;;3.34;86.61
54270;BME280;40181;51.560;13.000;2023-04-26T05:25:36;100744.81;;;3.21;87.20
54270;BME280;40181;51.560;13.000;2023-04-26T05:28:05;100746.75;;;3.25;86.97
54270;BME280;40181;51.560;13.000;2023-04-26T05:30:36;100749.81;;;3.36;86.71
54270;BME280;40181;51.560;13.000;2023-04-26T05:33:05;100740.63;;;3.42;86.66
54270;BME280;40181;51.560;13.000;2023-04-26T05:35:35;100744.59;;;3.54;86.17
54270;BME280;40181;51.560;13.000;2023-04-26T05:38:06;100745.00;;;3.43;87.03
54270;BME280;40181;51.560;13.000;2023-04-26T05:40:35;100751.47;;;3.53;86.57
54270;BME280;40181;51.560;13.000;2023-04-26T05:43:04;100745.06;;;3.45;87.09
54270;BME280;40181;51.560;13.000;2023-04-26T05:45:34;100763.19;;;3.63;86.66
54270;BME280;40181;51.560;13.000;2023-04-26T05:48:03;100759.03;;;3.67;86.86
54270;BME280;40181;51.560;13.000;2023-04-26T05:50:33;100757.16;;;3.84;86.15
54270;BME280;40181;51.560;13.000;2023-04-26T05:53:02;100758.88;;;3.64;86.41
54270;BME280;40181;51.560;13.000;2023-04-26T05:55:33;100765.16;;;3.88;85.72
54270;BME280;40181;51.560;13.000;2023-04-26T05:58:03;100771.59;;;3.77;86.12
54270;BME280;40181;51.560;13.000;2023-04-26T06:00:33;100766.53;;;3.80;85.40
54270;BME280;40181;51.560;13.000;2023-04-26T06:03:02;100765.13;;;4.08;84.55
54270;BME280;40181;51.560;13.000;2023-04-26T06:05:32;100758.56;;;4.17;84.19
54270;BME280;40181;51.560;13.000;2023-04-26T06:08:02;100752.50;;;4.16;83.46
54270;BME280;40181;51.560;13.000;2023-04-26T06:10:34;100757.53;;;4.33;82.54
54270;BME280;40181;51.560;13.000;2023-04-26T06:13:04;100751.88;;;4.43;81.46
54270;BME280;40181;51.560;13.000;2023-04-26T06:15:33;100749.88;;;4.59;81.35
54270;BME280;40181;51.560;13.000;2023-04-26T06:18:03;100763.34;;;4.48;80.48
54270;BME280;40181;51.560;13.000;2023-04-26T06:20:33;100765.00;;;4.46;80.49
54270;BME280;40181;51.560;13.000;2023-04-26T06:23:02;100769.00;;;4.59;80.19
54270;BME280;40181;51.560;13.000;2023-04-26T06:25:34;100755.06;;;4.59;80.32
54270;BME280;40181;51.560;13.000;2023-04-26T06:28:08;100767.41;;;4.63;79.92
54270;BME280;40181;51.560;13.000;2023-04-26T06:30:37;100767.06;;;4.76;79.42
54270;BME280;40181;51.560;13.000;2023-04-26T06:33:06;100769.56;;;4.73;79.08
54270;BME280;40181;51.560;13.000;2023-04-26T06:35:38;100770.94;;;4.86;78.24
54270;BME280;40181;51.560;13.000;2023-04-26T06:38:08;100780.63;;;4.90;78.25
54270;BME280;40181;51.560;13.000;2023-04-26T06:40:39;100784.97;;;4.90;78.15
54270;BME280;40181;51.560;13.000;2023-04-26T06:43:08;100770.19;;;4.89;76.80
54270;BME280;40181;51.560;13.000;2023-04-26T06:45:37;100768.19;;;5.04;76.59
54270;BME280;40181;51.560;13.000;2023-04-26T06:48:06;100768.81;;;4.98;76.75
54270;BME280;40181;51.560;13.000;2023-04-26T06:50:36;100771.03;;;5.10;75.99
54270;BME280;40181;51.560;13.000;2023-04-26T06:53:06;100773.81;;;5.15;76.14
54270;BME280;40181;51.560;13.000;2023-04-26T06:55:35;100779.72;;;5.11;75.45
54270;BME280;40181;51.560;13.000;2023-04-26T06:58:07;100775.94;;;5.25;75.35
54270;BME280;40181;51.560;13.000;2023-04-26T07:00:36;100777.66;;;5.25;74.67
54270;BME280;40181;51.560;13.000;2023-04-26T07:03:05;100775.53;;;5.37;73.93
54270;BME280;40181;51.560;13.000;2023-04-26T07:05:34;100779.25;;;5.44;73.09
54270;BME280;40181;51.560;13.000;2023-04-26T07:08:03;100778.59;;;5.27;72.79
54270;BME280;40181;51.560;13.000;2023-04-26T07:10:33;100771.06;;;5.35;72.56
54270;BME280;40181;51.560;13.000;2023-04-26T07:13:04;100777.22;;;5.60;72.34
54270;BME280;40181;51.560;13.000;2023-04-26T07:15:33;100781.06;;;5.47;71.32
54270;BME280;40181;51.560;13.000;2023-04-26T07:18:03;100775.63;;;5.63;70.87
54270;BME280;40181;51.560;13.000;2023-04-26T07:20:32;100763.69;;;5.70;68.94
54270;BME280;40181;51.560;13.000;2023-04-26T07:23:01;100772.66;;;5.77;67.59
54270;BME280;40181;51.560;13.000;2023-04-26T07:25:30;100776.06;;;5.76;68.36
54270;BME280;40181;51.560;13.000;2023-04-26T07:27:59;100776.59;;;5.90;67.32
54270;BME280;40181;51.560;13.000;2023-04-26T07:30:31;100790.25;;;5.84;67.46
54270;BME280;40181;51.560;13.000;2023-04-26T07:33:00;100784.56;;;5.94;66.88
54270;BME280;40181;51.560;13.000;2023-04-26T07:35:29;100779.22;;;5.91;66.04
54270;BME280;40181;51.560;13.000;2023-04-26T07:37:59;100771.09;;;6.06;65.56
54270;BME280;40181;51.560;13.000;2023-04-26T07:40:28;100780.81;;;6.11;65.44
54270;BME280;40181;51.560;13.000;2023-04-26T07:42:57;100772.00;;;6.33;65.54
54270;BME280;40181;51.560;13.000;2023-04-26T07:45:26;100778.72;;;6.52;64.61
54270;BME280;40181;51.560;13.000;2023-04-26T07:47:58;100771.34;;;6.66;63.53
54270;BME280;40181;51.560;13.000;2023-04-26T07:50:27;100773.31;;;6.46;64.29
54270;BME280;40181;51.560;13.000;2023-04-26T07:52:56;100770.75;;;6.47;63.94
54270;BME280;40181;51.560;13.000;2023-04-26T07:55:25;100774.41;;;6.53;63.39
54270;BME280;40181;51.560;13.000;2023-04-26T07:57:55;100778.06;;;6.58;63.15
54270;BME280;40181;51.560;13.000;2023-04-26T08:00:25;100783.00;;;6.50;61.56
54270;BME280;40181;51.560;13.000;2023-04-26T08:02:54;100770.00;;;6.77;60.22
54270;BME280;40181;51.560;13.000;2023-04-26T08:05:25;100780.03;;;6.65;62.12
54270;BME280;40181;51.560;13.000;2023-04-26T08:07:55;100771.34;;;6.66;62.65
54270;BME280;40181;51.560;13.000;2023-04-26T08:10:25;100784.38;;;6.64;62.16
54270;BME280;40181;51.560;13.000;2023-04-26T08:12:55;100784.47;;;6.42;63.42
54270;BME280;40181;51.560;13.000;2023-04-26T08:15:27;100790.47;;;6.65;62.50
54270;BME280;40181;51.560;13.000;2023-04-26T08:17:59;100785.69;;;6.79;62.01
54270;BME280;40181;51.560;13.000;2023-04-26T08:20:28;100780.78;;;6.61;62.55
54270;BME280;40181;51.560;13.000;2023-04-26T08:22:57;100791.06;;;6.56;62.67
54270;BME280;40181;51.560;13.000;2023-04-26T08:25:27;100787.53;;;6.56;62.82
54270;BME280;40181;51.560;13.000;2023-04-26T08:27:59;100791.06;;;6.56;63.11
54270;BME280;40181;51.560;13.000;2023-04-26T08:30:29;100787.13;;;6.97;62.84
54270;BME280;40181;51.560;13.000;2023-04-26T08:33:01;100786.34;;;7.28;61.50
54270;BME280;40181;51.560;13.000;2023-04-26T08:35:31;100788.75;;;6.93;60.17
54270;BME280;40181;51.560;13.000;2023-04-26T08:38:00;100779.13;;;6.90;59.98
54270;BME280;40181;51.560;13.000;2023-04-26T08:40:29;100776.44;;;6.89;60.44
54270;BME280;40181;51.560;13.000;2023-04-26T08:42:58;100782.31;;;7.09;60.88
54270;BME280;40181;51.560;13.000;2023-04-26T08:45:27;100787.28;;;7.01;60.00
54270;BME280;40181;51.560;13.000;2023-04-26T08:48:02;100776.25;;;7.10;59.91
54270;BME280;40181;51.560;13.000;2023-04-26T08:50:37;100787.09;;;6.95;59.98
54270;BME280;40181;51.560;13.000;2023-04-26T08:53:07;100790.50;;;6.92;61.17
54270;BME280;40181;51.560;13.000;2023-04-26T08:55:36;100789.38;;;7.12;61.35
54270;BME280;40181;51.560;13.000;2023-04-26T08:58:06;100797.34;;;6.89;62.02
54270;BME280;40181;51.560;13.000;2023-04-26T09:00:36;100796.66;;;6.95;62.67
54270;BME280;40181;51.560;13.000;2023-04-26T09:03:08;100804.19;;;6.85;63.00
54270;BME280;40181;51.560;13.000;2023-04-26T09:05:39;100795.13;;;6.74;62.17
54270;BME280;40181;51.560;13.000;2023-04-26T09:08:13;100796.81;;;6.72;61.00
54270;BME280;40181;51.560;13.000;2023-04-26T09:10:44;100789.06;;;6.75;62.01
54270;BME280;40181;51.560;13.000;2023-04-26T09:13:13;100810.31;;;6.86;61.86
54270;BME280;40181;51.560;13.000;2023-04-26T09:15:42;100791.50;;;6.98;61.46
54270;BME280;40181;51.560;13.000;2023-04-26T09:18:18;100803.59;;;6.94;62.44
54270;BME280;40181;51.560;13.000;2023-04-26T09:21:01;100797.72;;;7.01;62.60
54270;BME280;40181;51.560;13.000;2023-04-26T09:23:32;100803.59;;;6.94;62.03
54270;BME280;40181;51.560;13.000;2023-04-26T09:26:18;100802.94;;;7.01;61.79
54270;BME280;40181;51.560;13.000;2023-04-26T09:28:47;100795.06;;;7.00;59.49
54270;BME280;40181;51.560;13.000;2023-04-26T09:31:35;100795.88;;;6.97;59.27
54270;BME280;40181;51.560;13.000;2023-04-26T09:34:08;100798.03;;;6.83;60.12
54270;BME280;40181;51.560;13.000;2023-04-26T09:36:48;100799.25;;;6.95;60.56
54270;BME280;40181;51.560;13.000;2023-04-26T09:39:29;100798.25;;;6.89;61.57
54270;BME280;40181;51.560;13.000;2023-04-26T09:42:00;100798.25;;;6.91;61.32
54270;BME280;40181;51.560;13.000;2023-04-26T09:44:29;100799.59;;;6.78;61.73
54270;BME280;40181;51.560;13.000;2023-04-26T09:47:00;100793.75;;;6.85;62.58
54270;BME280;40181;51.560;13.000;2023-04-26T09:49:43;100795.78;;;6.94;61.67
54270;BME280;40181;51.560;13.000;2023-04-26T09:52:14;100796.06;;;7.03;61.36
54270;BME280;40181;51.560;13.000;2023-04-26T09:54:45;100808.56;;;7.14;59.27
54270;BME280;40181;51.560;13.000;2023-04-26T09:57:16;100808.38;;;7.08;59.45
54270;BME280;40181;51.560;13.000;2023-04-26T09:59:47;100797.78;;;7.32;58.96
54270;BME280;40181;51.560;13.000;2023-04-26T10:02:19;100799.84;;;7.42;58.83
54270;BME280;40181;51.560;13.000;2023-04-26T10:04:53;100800.69;;;7.70;57.80
54270;BME280;40181;51.560;13.000;2023-04-26T10:07:24;100800.38;;;7.90;57.08
54270;BME280;40181;51.560;13.000;2023-04-26T10:09:56;100794.88;;;8.13;56.51
54270;BME280;40181;51.560;13.000;2023-04-26T10:12:26;100800.19;;;7.84;55.55
54270;BME280;40181;51.560;13.000;2023-04-26T10:14:55;100795.97;;;7.58;56.35
54270;BME280;40181;51.560;13.000;2023-04-26T10:17:26;100800.66;;;7.40;56.48
54270;BME280;40181;51.560;13.000;2023-04-26T10:20:00;100820.63;;;7.38;56.94
54270;BME280;40181;51.560;13.000;2023-04-26T10:22:34;100805.59;;;7.30;57.28
54270;BME280;40181;51.560;13.000;2023-04-26T10:25:08;100800.53;;;7.35;57.91
54270;BME280;40181;51.560;13.000;2023-04-26T10:27:47;100808.59;;;7.43;57.95
54270;BME280;40181;51.560;13.000;2023-04-26T10:30:19;100810.44;;;7.47;56.73
54270;BME280;40181;51.560;13.000;2023-04-26T10:33:13;100801.22;;;7.58;57.06
54270;BME280;40181;51.560;13.000;2023-04-26T10:36:03;100799.72;;;7.68;56.82
54270;BME280;40181;51.560;13.000;2023-04-26T10:38:40;100801.53;;;8.01;55.99
54270;BME280;40181;51.560;13.000;2023-04-26T10:41:33;100800.84;;;7.77;54.07
54270;BME280;40181;51.560;13.000;2023-04-26T10:44:37;100805.06;;;7.71;54.69
54270;BME280;40181;51.560;13.000;2023-04-26T10:47:24;100799.47;;;7.89;54.86
54270;BME280;40181;51.560;13.000;2023-04-26T10:50:01;100776.41;;;8.07;54.98
54270;BME280;40181;51.560;13.000;2023-04-26T10:52:35;100780.75;;;8.40;54.25
54270;BME280;40181;51.560;13.000;2023-04-26T10:55:05;100779.34;;;8.53;53.97
54270;BME280;40181;51.560;13.000;2023-04-26T10:57:50;100777.25;;;8.39;52.70
54270;BME280;40181;51.560;13.000;2023-04-26T11:00:29;100778.66;;;8.60;51.02
54270;BME280;40181;51.560;13.000;2023-04-26T11:03:03;100764.22;;;8.76;50.84
54270;BME280;40181;51.560;13.000;2023-04-26T11:05:35;100769.56;;;8.81;51.16
54270;BME280;40181;51.560;13.000;2023-04-26T11:08:16;100765.44;;;8.91;51.24
54270;BME280;40181;51.560;13.000;2023-04-26T11:10:50;100777.03;;;8.64;50.41
54270;BME280;40181;51.560;13.000;2023-04-26T11:13:24;100770.56;;;8.17;49.88
54270;BME280;40181;51.560;13.000;2023-04-26T11:15:58;100785.84;;;8.35;48.75
54270;BME280;40181;51.560;13.000;2023-04-26T11:18:30;100775.13;;;8.24;49.01
54270;BME280;40181;51.560;13.000;2023-04-26T11:21:00;100773.78;;;8.40;48.39
54270;BME280;40181;51.560;13.000;2023-04-26T11:23:32;100777.97;;;8.34;48.44
54270;BME280;40181;51.560;13.000;2023-04-26T11:26:02;100790.72;;;8.53;49.18
54270;BME280;40181;51.560;13.000;2023-04-26T11:28:34;100774.03;;;8.16;49.87
54270;BME280;40181;51.560;13.000;2023-04-26T11:31:06;100777.75;;;8.24;49.65
54270;BME280;40181;51.560;13.000;2023-04-26T11:33:35;100778.66;;;8.26;48.86
54270;BME280;40181;51.560;13.000;2023-04-26T11:36:05;100780.81;;;8.09;47.70
54270;BME280;40181;51.560;13.000;2023-04-26T11:38:37;100771.25;;;8.43;47.31
54270;BME280;40181;51.560;13.000;2023-04-26T11:41:06;100778.56;;;8.55;46.24
54270;BME280;40181;51.560;13.000;2023-04-26T11:43:36;100770.88;;;8.29;46.21
54270;BME280;40181;51.560;13.000;2023-04-26T11:46:07;100770.50;;;8.49;46.62
54270;BME280;40181;51.560;13.000;2023-04-26T11:48:37;100775.63;;;8.44;46.71
54270;BME280;40181;51.560;13.000;2023-04-26T11:51:07;100776.56;;;8.47;46.51
54270;BME280;40181;51.560;13.000;2023-04-26T11:53:40;100770.09;;;8.32;47.60
54270;BME280;40181;51.560;13.000;2023-04-26T11:56:13;100776.41;;;8.40;48.03
54270;BME280;40181;51.560;13.000;2023-04-26T11:58:44;100785.00;;;8.35;47.82
54270;BME280;40181;51.560;13.000;2023-04-26T12:01:21;100786.75;;;8.36;47.59
54270;BME280;40181;51.560;13.000;2023-04-26T12:03:51;100789.31;;;8.34;47.96
54270;BME280;40181;51.560;13.000;2023-04-26T12:06:26;100791.16;;;8.70;46.76
54270;BME280;40181;51.560;13.000;2023-04-26T12:09:01;100782.44;;;8.71;46.53
54270;BME280;40181;51.560;13.000;2023-04-26T12:11:32;100788.19;;;8.56;49.11
54270;BME280;40181;51.560;13.000;2023-04-26T12:14:02;100792.72;;;8.64;49.09
54270;BME280;40181;51.560;13.000;2023-04-26T12:16:34;100789.56;;;8.77;49.36
54270;BME280;40181;51.560;13.000;2023-04-26T12:19:04;100788.84;;;8.83;48.57
54270;BME280;40181;51.560;13.000;2023-04-26T12:21:41;100786.47;;;8.58;48.30
54270;BME280;40181;51.560;13.000;2023-04-26T12:24:25;100783.44;;;8.77;47.32
54270;BME280;40181;51.560;13.000;2023-04-26T12:26:57;100793.25;;;8.85;47.27
54270;BME280;40181;51.560;13.000;2023-04-26T12:29:27;100783.88;;;8.95;47.33
54270;BME280;40181;51.560;13.000;2023-04-26T12:31:56;100783.59;;;8.83;47.47
54270;BME280;40181;51.560;13.000;2023-04-26T12:34:26;100773.56;;;9.03;47.31
54270;BME280;40181;51.560;13.000;2023-04-26T12:36:55;100769.16;;;9.40;46.14
54270;BME280;40181;51.560;13.000;2023-04-26T12:39:27;100769.34;;;9.93;45.00
54270;BME280;40181;51.560;13.000;2023-04-26T12:41:56;100765.28;;;10.09;45.59
54270;BME280;40181;51.560;13.000;2023-04-26T12:44:25;100775.63;;;9.57;45.50
54270;BME280;40181;51.560;13.000;2023-04-26T12:46:54;100768.19;;;9.78;46.68
54270;BME280;40181;51.560;13.000;2023-04-26T12:49:23;100772.53;;;9.76;43.29
54270;BME280;40181;51.560;13.000;2023-04-26T12:51:53;100774.16;;;9.69;43.59
54270;BME280;40181;51.560;13.000;2023-04-26T12:54:22;100779.97;;;9.15;44.66
54270;BME280;40181;51.560;13.000;2023-04-26T12:56:54;100777.97;;;9.44;44.63
54270;BME280;40181;51.560;13.000;2023-04-26T12:59:23;100785.44;;;9.25;44.53
54270;BME280;40181;51.560;13.000;2023-04-26T13:01:53;100785.53;;;9.30;44.74
54270;BME280;40181;51.560;13.000;2023-04-26T13:04:22;100783.56;;;9.20;44.38
54270;BME280;40181;51.560;13.000;2023-04-26T13:06:51;100790.69;;;9.25;44.82
54270;BME280;40181;51.560;13.000;2023-04-26T13:09:20;100787.09;;;9.22;45.41